sensor_id;sensor_type;location;lat;lon;timestamp;temperature;humidity
25342;DHT22;13298;48.792;9.154;2023-03-05T00:01:21;2.80;99.90
25342;DHT22;13298;48.792;9.154;2023-03-05T00:03:49;2.80;99.90
25342;DHT22;13298;48.792;9.154;2023-03-05T00:06:20;2.80;99.90
25342;DHT22;13298;48.792;9.154;2023-03-05T00:08:47;2.90;99.90
25342;DHT22;13298;48.792;9.154;2023-03-05T00:11:13;2.90;99.90
25342;DHT22;13298;48.792;9.154;2023-03-05T00:13:39;2.90;99.90
25342;DHT22;13298;48.792;9.154;2023-03-05T00:16:08;2.90;99.90
25342;DHT22;13298;48.792;9.154;2023-03-05T00:18:36;2.90;99.90
25342;DHT22;13298;48.792;9.154;2023-03-05T00:21:02;2.90;99.90
25342;DHT22;13298;48.792;9.154;2023-03-05T00:23:28;2.90;99.90
25342;DHT22;13298;48.792;9.154;2023-03-05T00:25:53;2.90;99.90
25342;DHT22;13298;48.792;9.154;2023-03-05T00:28:19;2.90;99.90
25342;DHT22;13298;48.792;9.154;2023-03-05T00:30:45;3.00;99.90
25342;DHT22;13298;48.792;9.154;2023-03-05T00:33:12;3.00;99.90
25342;DHT22;13298;48.792;9.154;2023-03-05T00:35:42;2.90;99.90
25342;DHT22;13298;48.792;9.154;2023-03-05T00:38:09;3.00;99.90
25342;DHT22;13298;48.792;9.154;2023-03-05T00:40:36;3.00;99.90
25342;DHT22;13298;48.792;9.154;2023-03-05T00:43:03;3.00;99.90
25342;DHT22;13298;48.792;9.154;2023-03-05T00:45:29;3.00;99.90
25342;DHT22;13298;48.792;9.154;2023-03-05T00:47:55;3.00;99.90
25342;DHT22;13298;48.792;9.154;2023-03-05T00:50:20;3.00;99.90
25342;DHT22;13298;48.792;9.154;2023-03-05T00:52:46;3.00;99.90
25342;DHT22;13298;48.792;9.154;2023-03-05T00:55:11;3.00;99.90
25342;DHT22;13298;48.792;9.154;2023-03-05T00:57:37;3.00;99.90
25342;DHT22;13298;48.792;9.154;2023-03-05T01:00:04;3.10;99.90
25342;DHT22;13298;48.792;9.154;2023-03-05T01:02:31;3.10;99.90
25342;DHT22;13298;48.792;9.154;2023-03-05T01:04:56;3.10;99.90
25342;DHT22;13298;48.792;9.154;2023-03-05T01:07:22;3.10;99.90
25342;DHT22;13298;48.792;9.154;2023-03-05T01:09:48;3.10;99.90
25342;DHT22;13298;48.792;9.154;2023-03-05T01:12:13;3.10;99.90
25342;DHT22;13298;48.792;9.154;2023-03-05T01:14:39;3.00;99.90
25342;DHT22;13298;48.792;9.154;2023-03-05T01:17:05;3.00;99.90
25342;DHT22;13298;48.792;9.154;2023-03-05T01:19:30;3.10;99.90
25342;DHT22;13298;48.792;9.154;2023-03-05T01:21:56;3.10;99.90
25342;DHT22;13298;48.792;9.154;2023-03-05T01:24:22;3.00;99.90
25342;DHT22;13298;48.792;9.154;2023-03-05T01:26:48;3.10;99.90
25342;DHT22;13298;48.792;9.154;2023-03-05T01:29:14;3.10;99.90
25342;DHT22;13298;48.792;9.154;2023-03-05T01:31:39;3.10;99.90
25342;DHT22;13298;48.792;9.154;2023-03-05T01:34:05;3.10;99.90
25342;DHT22;13298;48.792;9.154;2023-03-05T01:36:31;3.10;99.90
25342;DHT22;13298;48.792;9.154;2023-03-05T01:38:57;3.10;99.90
25342;DHT22;13298;48.792;9.154;2023-03-05T01:41:23;3.10;99.90
25342;DHT22;13298;48.792;9.154;2023-03-05T01:43:49;3.10;99.90
25342;DHT22;13298;48.792;9.154;2023-03-05T01:46:35;3.10;99.90
25342;DHT22;13298;48.792;9.154;2023-03-05T01:54:55;3.10;99.90
25342;DHT22;13298;48.792;9.154;2023-03-05T01:57:35;3.10;99.90
25342;DHT22;13298;48.792;9.154;2023-03-05T02:00:08;3.10;99.90
25342;DHT22;13298;48.792;9.154;2023-03-05T02:02:42;3.10;99.90
25342;DHT22;13298;48.792;9.154;2023-03-05T02:05:31;3.20;99.90
25342;DHT22;13298;48.792;9.154;2023-03-05T02:08:06;3.10;99.90
25342;DHT22;13298;48.792;9.154;2023-03-05T02:10:40;3.10;99.90
25342;DHT22;13298;48.792;9.154;2023-03-05T02:13:14;3.20;99.90
25342;DHT22;13298;48.792;9.154;2023-03-05T02:15:42;3.10;99.90
25342;DHT22;13298;48.792;9.154;2023-03-05T02:18:08;3.20;99.90
25342;DHT22;13298;48.792;9.154;2023-03-05T02:20:50;3.10;99.90
25342;DHT22;13298;48.792;9.154;2023-03-05T02:23:20;3.10;99.90
25342;DHT22;13298;48.792;9.154;2023-03-05T02:25:48;3.10;99.90
25342;DHT22;13298;48.792;9.154;2023-03-05T02:28:19;3.10;99.90
25342;DHT22;13298;48.792;9.154;2023-03-05T02:30:57;3.10;99.90
25342;DHT22;13298;48.792;9.154;2023-03-05T02:33:23;3.10;99.90
25342;DHT22;13298;48.792;9.154;2023-03-05T02:35:49;3.10;99.90
25342;DHT22;13298;48.792;9.154;2023-03-05T02:38:16;3.10;99.90
25342;DHT22;13298;48.792;9.154;2023-03-05T02:40:43;3.10;99.90
25342;DHT22;13298;48.792;9.154;2023-03-05T02:43:10;3.20;99.90
25342;DHT22;13298;48.792;9.154;2023-03-05T02:45:37;3.10;99.90
25342;DHT22;13298;48.792;9.154;2023-03-05T02:48:03;3.10;99.90
25342;DHT22;13298;48.792;9.154;2023-03-05T02:50:30;3.10;99.90
25342;DHT22;13298;48.792;9.154;2023-03-05T02:52:56;3.10;99.90
25342;DHT22;13298;48.792;9.154;2023-03-05T02:55:21;3.10;99.90
25342;DHT22;13298;48.792;9.154;2023-03-05T02:57:47;3.10;99.90
25342;DHT22;13298;48.792;9.154;2023-03-05T03:00:13;3.10;99.90
25342;DHT22;13298;48.792;9.154;2023-03-05T03:02:39;3.10;99.90
25342;DHT22;13298;48.792;9.154;2023-03-05T03:05:05;3.10;99.90
25342;DHT22;13298;48.792;9.154;2023-03-05T03:07:31;3.00;99.90
25342;DHT22;13298;48.792;9.154;2023-03-05T03:10:00;3.00;99.90
25342;DHT22;13298;48.792;9.154;2023-03-05T03:12:25;3.00;99.90
25342;DHT22;13298;48.792;9.154;2023-03-05T03:14:51;2.90;99.90
25342;DHT22;13298;48.792;9.154;2023-03-05T03:17:17;2.80;99.90
25342;DHT22;13298;48.792;9.154;2023-03-05T03:19:44;2.80;99.90
25342;DHT22;13298;48.792;9.154;2023-03-05T03:22:13;2.70;99.90
25342;DHT22;13298;48.792;9.154;2023-03-05T03:24:41;2.70;99.90
25342;DHT22;13298;48.792;9.154;2023-03-05T03:27:07;2.60;99.90
25342;DHT22;13298;48.792;9.154;2023-03-05T03:29:33;2.60;99.90
25342;DHT22;13298;48.792;9.154;2023-03-05T03:31:59;2.60;99.90
25342;DHT22;13298;48.792;9.154;2023-03-05T03:34:26;2.60;99.90
25342;DHT22;13298;48.792;9.154;2023-03-05T03:36:52;2.50;99.90
25342;DHT22;13298;48.792;9.154;2023-03-05T03:39:19;2.50;99.90
25342;DHT22;13298;48.792;9.154;2023-03-05T03:41:47;2.50;99.90
25342;DHT22;13298;48.792;9.154;2023-03-05T03:44:15;2.50;99.90
25342;DHT22;13298;48.792;9.154;2023-03-05T03:46:43;2.50;99.90
25342;DHT22;13298;48.792;9.154;2023-03-05T03:49:19;2.50;99.90
25342;DHT22;13298;48.792;9.154;2023-03-05T03:51:46;2.50;99.90
25342;DHT22;13298;48.792;9.154;2023-03-05T03:54:14;2.60;99.90
25342;DHT22;13298;48.792;9.154;2023-03-05T03:56:41;2.50;99.90
25342;DHT22;13298;48.792;9.154;2023-03-05T03:59:07;2.50;99.90
25342;DHT22;13298;48.792;9.154;2023-03-05T04:01:34;2.50;99.90
25342;DHT22;13298;48.792;9.154;2023-03-05T04:04:00;2.50;99.90
25342;DHT22;13298;48.792;9.154;2023-03-05T04:06:26;2.50;99.90
25342;DHT22;13298;48.792;9.154;2023-03-05T04:08:51;2.50;99.90
25342;DHT22;13298;48.792;9.154;2023-03-05T04:11:17;2.60;99.90
25342;DHT22;13298;48.792;9.154;2023-03-05T04:13:45;2.50;99.90
25342;DHT22;13298;48.792;9.154;2023-03-05T04:16:11;2.60;99.90
25342;DHT22;13298;48.792;9.154;2023-03-05T04:18:38;2.50;99.90
25342;DHT22;13298;48.792;9.154;2023-03-05T04:21:04;2.60;99.90
25342;DHT22;13298;48.792;9.154;2023-03-05T04:23:30;2.60;99.90
25342;DHT22;13298;48.792;9.154;2023-03-05T04:25:56;2.50;99.90
25342;DHT22;13298;48.792;9.154;2023-03-05T04:28:22;2.50;99.90
25342;DHT22;13298;48.792;9.154;2023-03-05T04:30:48;2.50;99.90
25342;DHT22;13298;48.792;9.154;2023-03-05T04:33:13;2.50;99.90
25342;DHT22;13298;48.792;9.154;2023-03-05T04:35:39;2.40;99.90
25342;DHT22;13298;48.792;9.154;2023-03-05T04:38:05;2.40;99.90
25342;DHT22;13298;48.792;9.154;2023-03-05T04:40:32;2.40;99.90
25342;DHT22;13298;48.792;9.154;2023-03-05T04:42:58;2.40;99.90
25342;DHT22;13298;48.792;9.154;2023-03-05T04:45:23;2.40;99.90
25342;DHT22;13298;48.792;9.154;2023-03-05T04:47:49;2.40;99.90
25342;DHT22;13298;48.792;9.154;2023-03-05T04:50:15;2.40;99.90
25342;DHT22;13298;48.792;9.154;2023-03-05T04:52:43;2.30;99.90
25342;DHT22;13298;48.792;9.154;2023-03-05T04:55:10;2.30;99.90
25342;DHT22;13298;48.792;9.154;2023-03-05T04:57:37;2.40;99.90
25342;DHT22;13298;48.792;9.154;2023-03-05T05:00:06;2.40;99.90
25342;DHT22;13298;48.792;9.154;2023-03-05T05:02:41;2.30;99.90
25342;DHT22;13298;48.792;9.154;2023-03-05T05:05:27;2.30;99.90
25342;DHT22;13298;48.792;9.154;2023-03-05T05:07:55;2.30;99.90
25342;DHT22;13298;48.792;9.154;2023-03-05T05:10:21;2.30;99.90
25342;DHT22;13298;48.792;9.154;2023-03-05T05:12:48;2.30;99.90
25342;DHT22;13298;48.792;9.154;2023-03-05T05:15:13;2.30;99.90
25342;DHT22;13298;48.792;9.154;2023-03-05T05:17:39;2.30;99.90
25342;DHT22;13298;48.792;9.154;2023-03-05T05:20:06;2.30;99.90
25342;DHT22;13298;48.792;9.154;2023-03-05T05:22:33;2.30;99.90
25342;DHT22;13298;48.792;9.154;2023-03-05T05:24:59;2.30;99.90
25342;DHT22;13298;48.792;9.154;2023-03-05T05:27:25;2.30;99.90
25342;DHT22;13298;48.792;9.154;2023-03-05T05:29:50;2.30;99.90
25342;DHT22;13298;48.792;9.154;2023-03-05T05:32:18;2.30;99.90
25342;DHT22;13298;48.792;9.154;2023-03-05T05:34:45;2.30;99.90
25342;DHT22;13298;48.792;9.154;2023-03-05T05:37:11;2.20;99.90
25342;DHT22;13298;48.792;9.154;2023-03-05T05:39:36;2.20;99.90
25342;DHT22;13298;48.792;9.154;2023-03-05T05:42:02;2.20;99.90
25342;DHT22;13298;48.792;9.154;2023-03-05T05:44:28;2.20;99.90
25342;DHT22;13298;48.792;9.154;2023-03-05T05:46:54;2.20;99.90
25342;DHT22;13298;48.792;9.154;2023-03-05T05:49:20;2.20;99.90
25342;DHT22;13298;48.792;9.154;2023-03-05T05:51:45;2.20;99.90
25342;DHT22;13298;48.792;9.154;2023-03-05T05:54:14;2.20;99.90
25342;DHT22;13298;48.792;9.154;2023-03-05T05:56:41;2.30;99.90
25342;DHT22;13298;48.792;9.154;2023-03-05T05:59:07;2.30;99.90
25342;DHT22;13298;48.792;9.154;2023-03-05T06:01:34;2.20;99.90
25342;DHT22;13298;48.792;9.154;2023-03-05T06:04:00;2.20;99.90
25342;DHT22;13298;48.792;9.154;2023-03-05T06:06:27;2.20;99.90
25342;DHT22;13298;48.792;9.154;2023-03-05T06:08:53;2.20;99.90
25342;DHT22;13298;48.792;9.154;2023-03-05T06:11:20;2.20;99.90
25342;DHT22;13298;48.792;9.154;2023-03-05T06:13:46;2.20;99.90
25342;DHT22;13298;48.792;9.154;2023-03-05T06:16:18;2.20;99.90
25342;DHT22;13298;48.792;9.154;2023-03-05T06:18:46;2.20;99.90
25342;DHT22;13298;48.792;9.154;2023-03-05T06:21:16;2.20;99.90
25342;DHT22;13298;48.792;9.154;2023-03-05T06:23:44;2.30;99.90
25342;DHT22;13298;48.792;9.154;2023-03-05T06:26:12;2.30;99.90
25342;DHT22;13298;48.792;9.154;2023-03-05T06:28:40;2.30;99.90
25342;DHT22;13298;48.792;9.154;2023-03-05T06:31:08;2.30;99.90
25342;DHT22;13298;48.792;9.154;2023-03-05T06:33:36;2.30;99.90
25342;DHT22;13298;48.792;9.154;2023-03-05T06:36:04;2.30;99.90
25342;DHT22;13298;48.792;9.154;2023-03-05T06:38:30;2.30;99.90
25342;DHT22;13298;48.792;9.154;2023-03-05T06:41:00;2.40;99.90
25342;DHT22;13298;48.792;9.154;2023-03-05T06:43:34;2.40;99.90
25342;DHT22;13298;48.792;9.154;2023-03-05T06:48:39;2.40;99.90
25342;DHT22;13298;48.792;9.154;2023-03-05T06:51:12;2.40;99.90
25342;DHT22;13298;48.792;9.154;2023-03-05T06:53:47;2.50;99.90
25342;DHT22;13298;48.792;9.154;2023-03-05T06:56:13;2.50;99.90
25342;DHT22;13298;48.792;9.154;2023-03-05T06:58:44;2.50;99.90
25342;DHT22;13298;48.792;9.154;2023-03-05T07:01:12;2.60;99.90
25342;DHT22;13298;48.792;9.154;2023-03-05T07:03:38;2.60;99.90
25342;DHT22;13298;48.792;9.154;2023-03-05T07:06:06;2.60;99.90
25342;DHT22;13298;48.792;9.154;2023-03-05T07:08:33;2.70;99.90
25342;DHT22;13298;48.792;9.154;2023-03-05T07:10:59;2.70;99.90
25342;DHT22;13298;48.792;9.154;2023-03-05T07:13:25;2.80;99.90
25342;DHT22;13298;48.792;9.154;2023-03-05T07:15:52;2.80;99.90
25342;DHT22;13298;48.792;9.154;2023-03-05T07:18:17;2.90;99.90
25342;DHT22;13298;48.792;9.154;2023-03-05T07:20:43;2.90;99.90
25342;DHT22;13298;48.792;9.154;2023-03-05T07:23:09;2.90;99.90
25342;DHT22;13298;48.792;9.154;2023-03-05T07:25:36;2.90;99.90
25342;DHT22;13298;48.792;9.154;2023-03-05T07:28:05;2.90;99.90
25342;DHT22;13298;48.792;9.154;2023-03-05T07:30:32;2.90;99.90
25342;DHT22;13298;48.792;9.154;2023-03-05T07:32:59;2.90;99.90
25342;DHT22;13298;48.792;9.154;2023-03-05T07:35:25;3.00;99.90
25342;DHT22;13298;48.792;9.154;2023-03-05T07:37:50;3.00;99.90
25342;DHT22;13298;48.792;9.154;2023-03-05T07:40:17;3.10;99.90
25342;DHT22;13298;48.792;9.154;2023-03-05T07:42:42;3.20;99.90
25342;DHT22;13298;48.792;9.154;2023-03-05T07:45:09;3.20;99.90
25342;DHT22;13298;48.792;9.154;2023-03-05T07:47:35;3.20;99.90
25342;DHT22;13298;48.792;9.154;2023-03-05T07:50:02;3.30;99.90
25342;DHT22;13298;48.792;9.154;2023-03-05T07:52:28;3.30;99.90
25342;DHT22;13298;48.792;9.154;2023-03-05T07:54:53;3.30;99.90
25342;DHT22;13298;48.792;9.154;2023-03-05T07:57:19;3.40;99.90
25342;DHT22;13298;48.792;9.154;2023-03-05T07:59:45;3.50;99.90
25342;DHT22;13298;48.792;9.154;2023-03-05T08:02:12;3.50;99.90
25342;DHT22;13298;48.792;9.154;2023-03-05T08:04:39;3.50;99.90
25342;DHT22;13298;48.792;9.154;2023-03-05T08:07:06;3.50;99.90
25342;DHT22;13298;48.792;9.154;2023-03-05T08:09:32;3.60;99.90
25342;DHT22;13298;48.792;9.154;2023-03-05T08:11:58;3.60;99.90
25342;DHT22;13298;48.792;9.154;2023-03-05T08:14:24;3.60;99.90
25342;DHT22;13298;48.792;9.154;2023-03-05T08:16:49;3.70;99.90
25342;DHT22;13298;48.792;9.154;2023-03-05T08:19:20;3.80;99.90
25342;DHT22;13298;48.792;9.154;2023-03-05T08:21:46;3.80;99.90
25342;DHT22;13298;48.792;9.154;2023-03-05T08:24:12;3.80;99.90
25342;DHT22;13298;48.792;9.154;2023-03-05T08:26:39;3.80;99.90
25342;DHT22;13298;48.792;9.154;2023-03-05T08:29:06;3.90;99.90
25342;DHT22;13298;48.792;9.154;2023-03-05T08:31:33;3.90;99.90
25342;DHT22;13298;48.792;9.154;2023-03-05T08:34:00;4.00;99.90
25342;DHT22;13298;48.792;9.154;2023-03-05T08:36:27;4.10;99.90
25342;DHT22;13298;48.792;9.154;2023-03-05T08:38:53;4.20;99.90
25342;DHT22;13298;48.792;9.154;2023-03-05T08:41:20;4.30;99.90
25342;DHT22;13298;48.792;9.154;2023-03-05T08:43:45;4.30;99.90
25342;DHT22;13298;48.792;9.154;2023-03-05T08:46:12;4.30;99.90
25342;DHT22;13298;48.792;9.154;2023-03-05T08:48:38;4.40;99.90
25342;DHT22;13298;48.792;9.154;2023-03-05T08:51:06;4.40;99.90
25342;DHT22;13298;48.792;9.154;2023-03-05T08:53:33;4.50;99.90
25342;DHT22;13298;48.792;9.154;2023-03-05T08:56:00;4.60;99.90
25342;DHT22;13298;48.792;9.154;2023-03-05T08:58:25;4.60;99.90
25342;DHT22;13298;48.792;9.154;2023-03-05T09:00:52;4.70;99.90
25342;DHT22;13298;48.792;9.154;2023-03-05T09:03:18;4.70;99.90
25342;DHT22;13298;48.792;9.154;2023-03-05T09:05:44;4.70;99.90
25342;DHT22;13298;48.792;9.154;2023-03-05T09:08:09;4.70;99.90
25342;DHT22;13298;48.792;9.154;2023-03-05T09:10:35;4.70;99.90
25342;DHT22;13298;48.792;9.154;2023-03-05T09:13:01;4.80;99.90
25342;DHT22;13298;48.792;9.154;2023-03-05T09:15:29;4.80;99.90
25342;DHT22;13298;48.792;9.154;2023-03-05T09:18:04;4.90;99.90
25342;DHT22;13298;48.792;9.154;2023-03-05T09:20:30;5.00;99.90
25342;DHT22;13298;48.792;9.154;2023-03-05T09:22:55;5.00;99.90
25342;DHT22;13298;48.792;9.154;2023-03-05T09:25:21;5.10;99.90
25342;DHT22;13298;48.792;9.154;2023-03-05T09:27:47;5.20;99.90
25342;DHT22;13298;48.792;9.154;2023-03-05T09:30:13;5.10;99.90
25342;DHT22;13298;48.792;9.154;2023-03-05T09:32:39;5.20;99.90
25342;DHT22;13298;48.792;9.154;2023-03-05T09:35:05;5.20;99.90
25342;DHT22;13298;48.792;9.154;2023-03-05T09:37:32;5.20;99.90
25342;DHT22;13298;48.792;9.154;2023-03-05T09:39:58;5.20;99.90
25342;DHT22;13298;48.792;9.154;2023-03-05T09:45:39;5.30;99.90
25342;DHT22;13298;48.792;9.154;2023-03-05T09:48:18;5.30;99.90
25342;DHT22;13298;48.792;9.154;2023-03-05T09:50:53;5.30;99.90
25342;DHT22;13298;48.792;9.154;2023-03-05T09:56:09;5.50;99.90
25342;DHT22;13298;48.792;9.154;2023-03-05T09:58:42;5.70;99.90
25342;DHT22;13298;48.792;9.154;2023-03-05T10:01:19;5.80;99.90
25342;DHT22;13298;48.792;9.154;2023-03-05T10:03:52;5.80;99.90
25342;DHT22;13298;48.792;9.154;2023-03-05T10:06:36;5.80;99.90
25342;DHT22;13298;48.792;9.154;2023-03-05T10:09:31;5.90;99.90
25342;DHT22;13298;48.792;9.154;2023-03-05T10:12:43;6.00;99.90
25342;DHT22;13298;48.792;9.154;2023-03-05T10:15:13;5.90;99.90
25342;DHT22;13298;48.792;9.154;2023-03-05T10:17:54;5.90;99.90
25342;DHT22;13298;48.792;9.154;2023-03-05T10:23:29;6.00;99.90
25342;DHT22;13298;48.792;9.154;2023-03-05T10:26:40;6.00;99.90
25342;DHT22;13298;48.792;9.154;2023-03-05T10:40:52;6.20;99.90
25342;DHT22;13298;48.792;9.154;2023-03-05T10:43:45;6.30;99.90
25342;DHT22;13298;48.792;9.154;2023-03-05T10:46:20;6.40;99.90
25342;DHT22;13298;48.792;9.154;2023-03-05T10:48:52;6.40;99.90
25342;DHT22;13298;48.792;9.154;2023-03-05T10:51:43;6.40;99.90
25342;DHT22;13298;48.792;9.154;2023-03-05T10:54:27;6.50;99.90
25342;DHT22;13298;48.792;9.154;2023-03-05T10:59:50;6.50;99.90
25342;DHT22;13298;48.792;9.154;2023-03-05T11:02:18;6.40;99.90
25342;DHT22;13298;48.792;9.154;2023-03-05T11:04:45;6.30;99.90
25342;DHT22;13298;48.792;9.154;2023-03-05T11:10:00;6.10;99.90
25342;DHT22;13298;48.792;9.154;2023-03-05T11:12:44;6.00;99.90
25342;DHT22;13298;48.792;9.154;2023-03-05T11:18:02;5.70;99.90
25342;DHT22;13298;48.792;9.154;2023-03-05T11:20:33;5.60;99.90
25342;DHT22;13298;48.792;9.154;2023-03-05T11:23:10;5.40;99.90
25342;DHT22;13298;48.792;9.154;2023-03-05T11:28:39;5.10;99.90
25342;DHT22;13298;48.792;9.154;2023-03-05T11:31:21;5.00;99.90
25342;DHT22;13298;48.792;9.154;2023-03-05T11:34:20;4.80;99.90
25342;DHT22;13298;48.792;9.154;2023-03-05T11:39:23;4.60;99.90
25342;DHT22;13298;48.792;9.154;2023-03-05T11:41:52;4.50;99.90
25342;DHT22;13298;48.792;9.154;2023-03-05T11:44:33;4.50;99.90
25342;DHT22;13298;48.792;9.154;2023-03-05T11:50:24;4.50;99.90
25342;DHT22;13298;48.792;9.154;2023-03-05T11:53:19;4.40;99.90
25342;DHT22;13298;48.792;9.154;2023-03-05T11:56:04;4.40;99.90
25342;DHT22;13298;48.792;9.154;2023-03-05T12:01:28;4.70;99.90
25342;DHT22;13298;48.792;9.154;2023-03-05T12:03:57;4.70;99.90
25342;DHT22;13298;48.792;9.154;2023-03-05T12:06:35;4.70;99.90
25342;DHT22;13298;48.792;9.154;2023-03-05T12:09:14;4.70;99.90
25342;DHT22;13298;48.792;9.154;2023-03-05T12:11:44;4.70;99.90
25342;DHT22;13298;48.792;9.154;2023-03-05T12:14:27;4.70;99.90
25342;DHT22;13298;48.792;9.154;2023-03-05T12:22:36;4.70;99.90
25342;DHT22;13298;48.792;9.154;2023-03-05T12:27:49;4.80;99.90
25342;DHT22;13298;48.792;9.154;2023-03-05T12:33:02;4.80;99.90
25342;DHT22;13298;48.792;9.154;2023-03-05T12:35:37;4.80;99.90
25342;DHT22;13298;48.792;9.154;2023-03-05T12:38:13;4.80;99.90
25342;DHT22;13298;48.792;9.154;2023-03-05T12:40:42;4.80;99.90
25342;DHT22;13298;48.792;9.154;2023-03-05T12:43:31;4.80;99.90
25342;DHT22;13298;48.792;9.154;2023-03-05T12:46:23;4.80;99.90
25342;DHT22;13298;48.792;9.154;2023-03-05T12:48:50;4.80;99.90
25342;DHT22;13298;48.792;9.154;2023-03-05T12:51:37;4.90;99.90
25342;DHT22;13298;48.792;9.154;2023-03-05T12:54:38;5.00;99.90
25342;DHT22;13298;48.792;9.154;2023-03-05T12:57:19;5.00;99.90
25342;DHT22;13298;48.792;9.154;2023-03-05T12:59:50;5.20;99.90
25342;DHT22;13298;48.792;9.154;2023-03-05T13:02:27;5.20;99.90
25342;DHT22;13298;48.792;9.154;2023-03-05T13:04:58;5.30;99.90
25342;DHT22;13298;48.792;9.154;2023-03-05T13:07:25;5.30;99.90
25342;DHT22;13298;48.792;9.154;2023-03-05T13:09:56;5.40;99.90
25342;DHT22;13298;48.792;9.154;2023-03-05T13:12:26;5.50;99.90
25342;DHT22;13298;48.792;9.154;2023-03-05T13:15:00;5.40;99.90
25342;DHT22;13298;48.792;9.154;2023-03-05T13:19:57;5.40;99.90
25342;DHT22;13298;48.792;9.154;2023-03-05T13:22:23;5.40;99.90
25342;DHT22;13298;48.792;9.154;2023-03-05T13:27:37;5.40;99.90
25342;DHT22;13298;48.792;9.154;2023-03-05T13:30:03;5.50;99.90
25342;DHT22;13298;48.792;9.154;2023-03-05T13:32:31;5.40;99.90
25342;DHT22;13298;48.792;9.154;2023-03-05T13:34:59;5.40;99.90
25342;DHT22;13298;48.792;9.154;2023-03-05T13:37:27;5.30;99.90
25342;DHT22;13298;48.792;9.154;2023-03-05T13:39:58;5.30;99.90
25342;DHT22;13298;48.792;9.154;2023-03-05T13:42:44;5.30;99.90
25342;DHT22;13298;48.792;9.154;2023-03-05T13:45:28;5.20;99.90
25342;DHT22;13298;48.792;9.154;2023-03-05T13:47:58;5.20;99.90
25342;DHT22;13298;48.792;9.154;2023-03-05T13:50:34;5.10;99.90
25342;DHT22;13298;48.792;9.154;2023-03-05T13:53:22;5.10;99.90
25342;DHT22;13298;48.792;9.154;2023-03-05T13:55:58;5.20;99.90
25342;DHT22;13298;48.792;9.154;2023-03-05T14:01:23;5.20;99.90
25342;DHT22;13298;48.792;9.154;2023-03-05T14:03:50;5.20;99.90
25342;DHT22;13298;48.792;9.154;2023-03-05T14:06:19;5.20;99.90
25342;DHT22;13298;48.792;9.154;2023-03-05T14:08:51;5.30;99.90
25342;DHT22;13298;48.792;9.154;2023-03-05T14:11:18;5.20;99.90
25342;DHT22;13298;48.792;9.154;2023-03-05T14:13:45;5.10;99.90
25342;DHT22;13298;48.792;9.154;2023-03-05T14:16:13;5.10;99.90
25342;DHT22;13298;48.792;9.154;2023-03-05T14:18:53;5.00;99.90
25342;DHT22;13298;48.792;9.154;2023-03-05T14:21:20;4.90;99.90
25342;DHT22;13298;48.792;9.154;2023-03-05T14:23:47;4.80;99.90
25342;DHT22;13298;48.792;9.154;2023-03-05T14:26:26;4.70;99.90
25342;DHT22;13298;48.792;9.154;2023-03-05T14:28:55;4.70;99.90
25342;DHT22;13298;48.792;9.154;2023-03-05T14:31:48;4.60;99.90
25342;DHT22;13298;48.792;9.154;2023-03-05T14:34:39;4.60;99.90
25342;DHT22;13298;48.792;9.154;2023-03-05T14:37:25;4.60;99.90
25342;DHT22;13298;48.792;9.154;2023-03-05T14:39:57;4.50;99.90
25342;DHT22;13298;48.792;9.154;2023-03-05T14:42:32;4.50;99.90
25342;DHT22;13298;48.792;9.154;2023-03-05T14:45:19;4.50;99.90
25342;DHT22;13298;48.792;9.154;2023-03-05T14:47:49;4.50;99.90
25342;DHT22;13298;48.792;9.154;2023-03-05T14:50:30;4.50;99.90
25342;DHT22;13298;48.792;9.154;2023-03-05T14:52:59;4.50;99.90
25342;DHT22;13298;48.792;9.154;2023-03-05T14:55:30;4.40;99.90
25342;DHT22;13298;48.792;9.154;2023-03-05T14:58:17;4.40;99.90
25342;DHT22;13298;48.792;9.154;2023-03-05T15:00:47;4.40;99.90
25342;DHT22;13298;48.792;9.154;2023-03-05T15:03:15;4.40;99.90
25342;DHT22;13298;48.792;9.154;2023-03-05T15:05:42;4.20;99.90
25342;DHT22;13298;48.792;9.154;2023-03-05T15:08:15;4.30;99.90
25342;DHT22;13298;48.792;9.154;2023-03-05T15:10:42;4.30;99.90
25342;DHT22;13298;48.792;9.154;2023-03-05T15:13:08;4.30;99.90
25342;DHT22;13298;48.792;9.154;2023-03-05T15:15:33;4.30;99.90
25342;DHT22;13298;48.792;9.154;2023-03-05T15:17:59;4.20;99.90
25342;DHT22;13298;48.792;9.154;2023-03-05T15:20:27;4.20;99.90
25342;DHT22;13298;48.792;9.154;2023-03-05T15:22:54;4.20;99.90
25342;DHT22;13298;48.792;9.154;2023-03-05T15:25:21;4.10;99.90
25342;DHT22;13298;48.792;9.154;2023-03-05T15:27:48;4.10;99.90
25342;DHT22;13298;48.792;9.154;2023-03-05T15:30:32;4.00;99.90
25342;DHT22;13298;48.792;9.154;2023-03-05T15:33:02;3.90;99.90
25342;DHT22;13298;48.792;9.154;2023-03-05T15:35:30;3.90;99.90
25342;DHT22;13298;48.792;9.154;2023-03-05T15:37:56;3.90;99.90
25342;DHT22;13298;48.792;9.154;2023-03-05T15:40:23;3.80;99.90
25342;DHT22;13298;48.792;9.154;2023-03-05T15:42:49;3.70;99.90
25342;DHT22;13298;48.792;9.154;2023-03-05T15:45:15;3.70;99.90
25342;DHT22;13298;48.792;9.154;2023-03-05T15:47:41;3.70;99.90
25342;DHT22;13298;48.792;9.154;2023-03-05T15:50:08;3.60;99.90
25342;DHT22;13298;48.792;9.154;2023-03-05T15:52:34;3.60;99.90
25342;DHT22;13298;48.792;9.154;2023-03-05T15:55:00;3.60;99.90
25342;DHT22;13298;48.792;9.154;2023-03-05T15:57:27;3.60;99.90
25342;DHT22;13298;48.792;9.154;2023-03-05T15:59:53;3.50;99.90
25342;DHT22;13298;48.792;9.154;2023-03-05T16:02:19;3.50;99.90
25342;DHT22;13298;48.792;9.154;2023-03-05T16:04:45;3.60;99.90
25342;DHT22;13298;48.792;9.154;2023-03-05T16:07:13;3.50;99.90
25342;DHT22;13298;48.792;9.154;2023-03-05T16:09:45;3.60;99.90
25342;DHT22;13298;48.792;9.154;2023-03-05T16:12:15;3.50;99.90
25342;DHT22;13298;48.792;9.154;2023-03-05T16:14:44;3.60;99.90
25342;DHT22;13298;48.792;9.154;2023-03-05T16:17:11;3.60;99.90
25342;DHT22;13298;48.792;9.154;2023-03-05T16:19:40;3.50;99.90
25342;DHT22;13298;48.792;9.154;2023-03-05T16:22:07;3.50;99.90
25342;DHT22;13298;48.792;9.154;2023-03-05T16:24:33;3.50;99.90
25342;DHT22;13298;48.792;9.154;2023-03-05T16:26:59;3.40;99.90
25342;DHT22;13298;48.792;9.154;2023-03-05T16:29:25;3.40;99.90
25342;DHT22;13298;48.792;9.154;2023-03-05T16:31:53;3.40;99.90
25342;DHT22;13298;48.792;9.154;2023-03-05T16:34:19;3.40;99.90
25342;DHT22;13298;48.792;9.154;2023-03-05T16:36:49;3.40;99.90
25342;DHT22;13298;48.792;9.154;2023-03-05T16:39:18;3.30;99.90
25342;DHT22;13298;48.792;9.154;2023-03-05T16:41:44;3.30;99.90
25342;DHT22;13298;48.792;9.154;2023-03-05T16:44:10;3.30;99.90
25342;DHT22;13298;48.792;9.154;2023-03-05T16:46:37;3.30;99.90
25342;DHT22;13298;48.792;9.154;2023-03-05T16:49:03;3.30;99.90
25342;DHT22;13298;48.792;9.154;2023-03-05T16:51:29;3.30;99.90
25342;DHT22;13298;48.792;9.154;2023-03-05T16:53:55;3.20;99.90
25342;DHT22;13298;48.792;9.154;2023-03-05T16:56:22;3.20;99.90
25342;DHT22;13298;48.792;9.154;2023-03-05T16:58:47;3.20;99.90
25342;DHT22;13298;48.792;9.154;2023-03-05T17:01:16;3.10;99.90
25342;DHT22;13298;48.792;9.154;2023-03-05T17:03:44;3.10;99.90
25342;DHT22;13298;48.792;9.154;2023-03-05T17:06:12;3.00;99.90
25342;DHT22;13298;48.792;9.154;2023-03-05T17:08:42;3.10;99.90